Time;durP1;ratioP1;P1;durP2;ratioP2;P2;SDS_P1;SDS_P2;PMS_P1;PMS_P2;Temp;Humidity;BMP_temperature;BMP_pressure;BME280_temperature;BME280_humidity;BME280_pressure;Samples;Min_cycle;Max_cycle;Signal;HPM_P1;HPM_P2
2022/10/06 00:00:45;;;;;;;2.53;2.33;;;;;;;16.24;100.00;100785.34;6039534;29;20143;-85
2022/10/06 00:03:46;;;;;;;2.97;2.15;;;;;;;16.35;100.00;100792.16;6044652;29;20467;-86
2022/10/06 00:06:49;;;;;;;2.92;2.10;;;;;;;16.45;100.00;100786.84;6043143;29;20076;-86
2022/10/06 00:09:52;;;;;;;2.92;2.03;;;;;;;16.46;100.00;100781.44;6043312;29;20049;-86
2022/10/06 00:12:54;;;;;;;3.00;2.08;;;;;;;16.47;100.00;100801.38;6032912;29;20037;-86
2022/10/06 00:15:56;;;;;;;2.35;2.00;;;;;;;16.51;100.00;100809.72;6030630;29;20041;-86
2022/10/06 00:18:58;;;;;;;5.80;2.00;;;;;;;16.21;100.00;100865.81;6033141;29;20044;-87
2022/10/06 00:22:00;;;;;;;2.15;1.00;;;;;;;15.72;100.00;100897.47;6044358;29;20057;-88
2022/10/06 00:25:02;;;;;;;0.95;0.50;;;;;;;14.95;100.00;100922.00;6029534;29;20436;-87
2022/10/06 00:28:03;;;;;;;1.33;1.00;;;;;;;14.45;100.00;100946.41;6037196;29;20041;-88
2022/10/06 00:31:05;;;;;;;1.45;0.57;;;;;;;14.06;100.00;100958.53;6049939;29;20512;-87
2022/10/06 00:34:07;;;;;;;0.73;0.40;;;;;;;13.76;100.00;100965.41;6036257;29;20104;-88
2022/10/06 00:37:09;;;;;;;0.35;0.35;;;;;;;13.49;100.00;100966.81;6044237;29;20049;-88
2022/10/06 00:40:11;;;;;;;0.63;0.43;;;;;;;13.34;100.00;100988.88;6042373;29;20049;-89
2022/10/06 00:43:41;;;;;;;0.30;0.30;;;;;;;13.18;100.00;101009.28;6044802;29;20041;-88
2022/10/06 00:46:53;;;;;;;0.60;0.40;;;;;;;13.00;100.00;100998.63;6035877;29;20502;-88
2022/10/06 00:49:55;;;;;;;1.20;0.50;;;;;;;12.90;100.00;100986.38;6043793;29;20052;-88
2022/10/06 00:52:57;;;;;;;2.97;0.65;;;;;;;12.81;100.00;100991.50;6043559;29;20569;-89
2022/10/06 00:55:59;;;;;;;1.10;0.40;;;;;;;12.74;100.00;100974.75;6036293;29;20066;-88
2022/10/06 00:59:01;;;;;;;1.48;0.40;;;;;;;12.76;100.00;100978.88;6038834;29;20057;-88
2022/10/06 01:02:12;;;;;;;0.43;0.40;;;;;;;12.71;100.00;100971.44;6041563;29;20049;-88
2022/10/06 01:05:19;;;;;;;;;;;;;;;12.69;100.00;100978.56;6042674;29;20060;-88
2022/10/06 01:08:22;;;;;;;0.40;0.30;;;;;;;12.76;100.00;100976.28;6045705;29;20446;-89
2022/10/06 01:11:24;;;;;;;5.07;0.63;;;;;;;12.75;100.00;100976.41;6049013;29;20159;-86
2022/10/06 01:14:26;;;;;;;0.40;0.30;;;;;;;12.75;100.00;100985.03;6049940;29;20049;-87
2022/10/06 01:17:49;;;;;;;0.40;0.40;;;;;;;12.76;100.00;100997.06;6045389;29;20568;-88
2022/10/06 01:21:24;;;;;;;0.30;0.30;;;;;;;12.73;100.00;101005.09;6041519;29;20527;-88
2022/10/06 01:24:27;;;;;;;1.33;0.50;;;;;;;12.76;100.00;101011.81;6037849;29;20730;-86
2022/10/06 01:27:31;;;;;;;0.40;0.30;;;;;;;12.77;100.00;101000.47;6041798;29;20044;-88
2022/10/06 01:30:50;;;;;;;0.98;0.40;;;;;;;12.93;100.00;101026.88;6044173;29;20053;-88
2022/10/06 01:33:54;;;;;;;2.50;0.50;;;;;;;12.98;100.00;101024.72;6042905;29;20072;-86
2022/10/06 01:36:57;;;;;;;2.72;0.50;;;;;;;13.02;100.00;101040.88;6047982;29;20503;-87
2022/10/06 01:40:00;;;;;;;0.85;0.40;;;;;;;12.92;100.00;101036.44;6048534;29;20057;-86
2022/10/06 01:43:02;;;;;;;1.38;0.40;;;;;;;13.01;100.00;101041.84;6048600;29;20236;-86
2022/10/06 01:46:04;;;;;;;0.65;0.50;;;;;;;13.08;100.00;101040.41;6039457;29;20276;-86
2022/10/06 01:49:06;;;;;;;1.65;0.45;;;;;;;13.08;100.00;101054.22;6042212;29;20535;-86
2022/10/06 01:52:08;;;;;;;1.85;0.35;;;;;;;13.10;100.00;101039.31;6038960;29;20660;-86
2022/10/06 01:55:10;;;;;;;0.80;0.30;;;;;;;13.13;100.00;101038.25;6035953;29;20080;-86
2022/10/06 01:58:12;;;;;;;0.70;0.30;;;;;;;13.12;100.00;101036.63;6041768;29;20060;-86
2022/10/06 02:01:15;;;;;;;0.30;0.30;;;;;;;13.07;100.00;101049.97;6054104;29;20049;-87
2022/10/06 02:04:16;;;;;;;0.63;0.40;;;;;;;13.13;100.00;101051.25;6034221;29;20040;-86
2022/10/06 02:07:18;;;;;;;0.57;0.35;;;;;;;13.15;100.00;101055.38;6021989;29;20064;-86
2022/10/06 02:10:21;;;;;;;1.55;0.40;;;;;;;13.15;100.00;101052.78;6022918;29;20054;-87
2022/10/06 02:13:26;;;;;;;1.60;0.38;;;;;;;13.12;100.00;101058.22;6040504;29;20155;-87
2022/10/06 02:16:30;;;;;;;1.70;0.40;;;;;;;13.13;100.00;101072.03;6039916;29;20056;-87
2022/10/06 02:19:31;;;;;;;0.77;0.30;;;;;;;13.13;100.00;101080.66;6033013;29;20134;-87
2022/10/06 02:22:38;;;;;;;0.90;0.60;;;;;;;13.07;100.00;101082.94;6041344;29;20119;-87
2022/10/06 02:25:39;;;;;;;2.20;0.43;;;;;;;12.98;100.00;101092.28;6032463;29;20518;-87
2022/10/06 02:28:43;;;;;;;0.57;0.38;;;;;;;12.98;100.00;101112.28;6038029;29;20173;-86
2022/10/06 02:31:48;;;;;;;1.30;0.50;;;;;;;13.03;100.00;101110.94;6030839;29;20101;-87
2022/10/06 02:34:51;;;;;;;2.33;0.50;;;;;;;13.12;100.00;101131.00;6037357;29;20776;-87
2022/10/06 02:37:52;;;;;;;2.53;0.77;;;;;;;13.10;100.00;101135.50;6030756;29;20065;-86
2022/10/06 02:40:56;;;;;;;1.70;0.70;;;;;;;13.11;100.00;101137.13;6033362;29;20810;-87
2022/10/06 02:43:59;;;;;;;4.53;0.95;;;;;;;13.01;100.00;101145.78;6043452;29;20198;-86
2022/10/06 02:47:01;;;;;;;3.42;0.85;;;;;;;13.00;100.00;101155.38;6053866;29;20579;-87
2022/10/06 02:50:06;;;;;;;1.90;0.93;;;;;;;12.88;100.00;101166.72;6048737;29;20061;-87
2022/10/06 02:53:09;;;;;;;2.97;1.00;;;;;;;12.79;100.00;101167.44;6042543;29;20060;-86
2022/10/06 02:56:30;;;;;;;2.80;0.88;;;;;;;12.83;100.00;101187.06;6033815;29;20045;-87
2022/10/06 02:59:32;;;;;;;4.25;0.90;;;;;;;12.86;100.00;101190.22;6043754;29;20131;-88
2022/10/06 03:02:34;;;;;;;4.85;1.40;;;;;;;12.91;100.00;101193.28;6059211;29;20100;-86
2022/10/06 03:05:38;;;;;;;3.67;1.20;;;;;;;12.80;100.00;101195.09;6048320;29;20109;-86
2022/10/06 03:08:40;;;;;;;2.95;1.13;;;;;;;12.80;100.00;101195.09;6054771;29;20585;-86
2022/10/06 03:11:42;;;;;;;2.28;0.82;;;;;;;12.65;100.00;101191.91;6050177;29;20381;-86
2022/10/06 03:14:48;;;;;;;2.80;0.98;;;;;;;12.65;100.00;101199.69;6050085;29;20140;-86
2022/10/06 03:17:51;;;;;;;3.85;1.00;;;;;;;12.62;100.00;101211.16;6050104;29;20424;-87
2022/10/06 03:20:52;;;;;;;3.80;1.20;;;;;;;12.66;100.00;101214.31;6034571;29;20142;-86
2022/10/06 03:23:57;;;;;;;4.13;1.30;;;;;;;12.65;100.00;101205.72;6047767;29;20044;-86
2022/10/06 03:27:00;;;;;;;4.72;1.58;;;;;;;12.63;100.00;101209.38;6055079;29;20056;-86
2022/10/06 03:30:03;;;;;;;4.95;1.35;;;;;;;12.57;100.00;101220.22;6055085;29;20049;-86
2022/10/06 03:33:07;;;;;;;3.50;1.08;;;;;;;12.55;100.00;101222.13;6054501;29;20878;-86
2022/10/06 03:36:13;;;;;;;3.58;0.90;;;;;;;12.51;100.00;101229.31;6054270;29;20055;-86
2022/10/06 03:39:16;;;;;;;2.33;0.80;;;;;;;12.47;100.00;101222.69;6054187;29;20068;-86
2022/10/06 03:42:17;;;;;;;5.10;1.20;;;;;;;12.45;100.00;101234.97;6047582;29;20083;-86
2022/10/06 03:45:20;;;;;;;6.40;1.23;;;;;;;12.49;100.00;101244.19;6046856;29;20485;-87
2022/10/06 03:48:22;;;;;;;2.78;1.10;;;;;;;12.48;100.00;101230.38;6046196;29;20053;-86
2022/10/06 03:51:31;;;;;;;3.80;1.20;;;;;;;12.52;100.00;101238.78;6048890;29;20037;-86
2022/10/06 03:54:33;;;;;;;5.22;1.58;;;;;;;12.45;100.00;101241.00;6062055;29;20056;-86
2022/10/06 03:57:34;;;;;;;3.95;1.25;;;;;;;12.48;100.00;101242.53;6036761;29;20591;-86
2022/10/06 04:00:36;;;;;;;5.85;1.20;;;;;;;12.41;100.00;101241.34;6033994;29;20492;-86
2022/10/06 04:03:39;;;;;;;2.42;0.95;;;;;;;12.38;100.00;101262.34;6047437;29;20123;-86
2022/10/06 04:06:42;;;;;;;5.30;1.60;;;;;;;12.34;100.00;101256.53;6034432;29;20402;-86
2022/10/06 04:09:50;;;;;;;6.95;1.65;;;;;;;12.44;100.00;101267.06;6047945;29;20057;-87
2022/10/06 04:12:53;;;;;;;7.85;1.23;;;;;;;12.49;100.00;101277.94;6056658;29;20862;-86
2022/10/06 04:15:56;;;;;;;7.80;1.48;;;;;;;12.51;100.00;101276.06;6023778;29;20045;-86
2022/10/06 04:19:00;;;;;;;4.55;1.30;;;;;;;12.56;100.00;101281.72;6041428;29;20506;-87
2022/10/06 04:22:03;;;;;;;3.33;1.20;;;;;;;12.56;100.00;101275.72;6047794;29;20045;-86
2022/10/06 04:25:06;;;;;;;5.28;1.40;;;;;;;12.60;100.00;101288.34;6056882;29;20495;-86
2022/10/06 04:28:09;;;;;;;7.20;1.70;;;;;;;12.50;100.00;101302.97;6043579;29;20117;-86
2022/10/06 04:31:30;;;;;;;4.97;1.30;;;;;;;12.59;100.00;101302.28;6046590;29;20045;-87
2022/10/06 04:34:32;;;;;;;4.90;1.35;;;;;;;12.60;100.00;101309.13;6063153;29;20060;-86
2022/10/06 04:37:34;;;;;;;6.20;1.70;;;;;;;12.55;100.00;101310.44;6047392;29;20088;-86
2022/10/06 04:40:37;;;;;;;5.72;1.40;;;;;;;12.53;100.00;101318.31;6044081;29;20586;-86
2022/10/06 04:43:39;;;;;;;6.55;1.50;;;;;;;12.54;100.00;101330.34;6038644;29;20054;-86
2022/10/06 04:46:41;;;;;;;4.43;1.50;;;;;;;12.61;100.00;101331.56;6042790;29;20491;-85
2022/10/06 04:49:45;;;;;;;5.68;1.45;;;;;;;12.67;100.00;101331.13;6049195;29;20041;-86
2022/10/06 04:52:48;;;;;;;10.90;1.50;;;;;;;12.63;100.00;101334.06;6044562;29;20079;-86
2022/10/06 04:56:17;;;;;;;6.50;1.48;;;;;;;12.60;100.00;101358.47;6054324;29;20048;-86
2022/10/06 05:00:21;;;;;;;3.90;1.20;;;;;;;12.56;100.00;101343.25;6047057;29;20189;-86
2022/10/06 05:02:42;;;;;;;8.25;1.63;;;;;;;12.52;100.00;101355.63;6056494;29;20049;-86
2022/10/06 05:05:44;;;;;;;4.22;1.40;;;;;;;12.53;100.00;101370.25;6043221;29;20044;-86
2022/10/06 05:08:48;;;;;;;5.60;1.30;;;;;;;12.47;100.00;101376.75;6028787;29;20100;-86
2022/10/06 05:11:50;;;;;;;6.03;1.40;;;;;;;12.40;100.00;101383.31;6046165;29;20052;-86
2022/10/06 05:14:55;;;;;;;5.68;1.42;;;;;;;12.37;100.00;101393.94;6056419;29;20044;-86
2022/10/06 05:17:56;;;;;;;5.70;1.50;;;;;;;12.31;100.00;101412.53;6044861;29;20043;-86
2022/10/06 05:21:07;;;;;;;7.68;1.55;;;;;;;12.37;100.00;101414.72;6036047;29;20041;-86
2022/10/06 05:24:08;;;;;;;8.60;1.45;;;;;;;12.50;100.00;101407.66;6058893;29;20049;-87
2022/10/06 05:27:12;;;;;;;5.43;1.42;;;;;;;12.52;100.00;101420.56;6059791;29;20139;-86
2022/10/06 05:30:13;;;;;;;8.77;1.92;;;;;;;12.51;100.00;101424.06;6045146;29;20064;-86
2022/10/06 05:33:15;;;;;;;4.95;1.10;;;;;;;12.44;100.00;101431.47;6035319;29;20056;-86
2022/10/06 05:36:20;;;;;;;5.05;1.20;;;;;;;12.50;100.00;101443.22;6052701;29;20508;-86
2022/10/06 05:39:24;;;;;;;6.22;1.40;;;;;;;12.45;100.00;101440.13;6043094;29;20495;-85
2022/10/06 05:42:29;;;;;;;8.30;1.42;;;;;;;12.37;100.00;101443.28;6040075;29;20105;-85
2022/10/06 05:45:32;;;;;;;6.88;1.60;;;;;;;12.34;100.00;101464.22;6037127;29;20048;-86
2022/10/06 05:48:34;;;;;;;5.03;1.45;;;;;;;12.20;100.00;101465.22;6045160;29;20052;-86
2022/10/06 05:51:38;;;;;;;6.68;1.55;;;;;;;12.18;100.00;101466.28;6062706;29;20077;-86
2022/10/06 05:54:51;;;;;;;4.07;1.20;;;;;;;12.19;100.00;101463.56;6041259;29;20045;-86
2022/10/06 05:57:54;;;;;;;4.78;1.40;;;;;;;12.12;100.00;101482.28;6038870;29;20045;-85
2022/10/06 06:00:55;;;;;;;4.13;1.15;;;;;;;12.11;100.00;101491.81;6055009;29;20049;-85
2022/10/06 06:04:02;;;;;;;7.13;1.40;;;;;;;12.10;100.00;101474.59;6045070;29;20044;-86
2022/10/06 06:07:09;;;;;;;3.97;1.20;;;;;;;12.03;100.00;101496.72;6047595;29;20571;-86
2022/10/06 06:10:13;;;;;;;6.00;1.45;;;;;;;11.94;100.00;101494.75;6043936;29;20045;-86
2022/10/06 06:13:21;;;;;;;6.32;1.35;;;;;;;11.88;100.00;101508.19;6040243;29;20161;-86
2022/10/06 06:16:41;;;;;;;4.45;1.20;;;;;;;11.87;100.00;101514.28;6048823;29;20049;-87
2022/10/06 06:19:43;;;;;;;4.00;1.38;;;;;;;11.87;100.00;101519.47;6038841;29;20060;-86
2022/10/06 06:22:52;;;;;;;7.40;1.50;;;;;;;11.89;100.00;101525.38;6046139;29;20124;-86
2022/10/06 06:26:02;;;;;;;11.43;2.45;;;;;;;11.90;100.00;101527.03;6048009;29;20056;-86
2022/10/06 06:29:06;;;;;;;4.65;1.30;;;;;;;11.79;100.00;101536.34;6048849;29;20063;-86
2022/10/06 06:32:17;;;;;;;6.10;1.30;;;;;;;11.80;100.00;101553.59;6049100;29;20105;-86
2022/10/06 06:35:18;;;;;;;4.20;1.30;;;;;;;11.81;100.00;101550.06;6048406;29;20076;-86
2022/10/06 06:38:20;;;;;;;7.53;1.48;;;;;;;11.83;100.00;101563.75;6035118;29;20136;-86
2022/10/06 06:41:32;;;;;;;6.00;1.52;;;;;;;11.92;100.00;101567.50;6044440;29;20064;-86
2022/10/06 06:44:41;;;;;;;4.75;1.30;;;;;;;11.89;100.00;101577.28;6037858;29;20477;-86
2022/10/06 06:47:52;;;;;;;3.03;1.50;;;;;;;11.84;100.00;101575.78;6047358;29;20049;-85
2022/10/06 06:50:56;;;;;;;3.20;1.35;;;;;;;11.92;100.00;101582.25;6042709;29;20054;-86
2022/10/06 06:54:01;;;;;;;8.90;1.48;;;;;;;12.00;100.00;101591.19;6044634;29;20045;-86
2022/10/06 06:57:04;;;;;;;3.78;1.17;;;;;;;11.96;100.00;101596.69;6044591;29;20045;-86
2022/10/06 07:00:07;;;;;;;7.60;1.27;;;;;;;12.02;100.00;101597.13;6042464;29;20052;-86
2022/10/06 07:03:14;;;;;;;4.93;1.40;;;;;;;12.10;100.00;101608.72;6047315;29;20053;-86
2022/10/06 07:06:27;;;;;;;11.55;1.95;;;;;;;12.04;100.00;101609.97;6046797;29;20666;-86
2022/10/06 07:09:31;;;;;;;4.53;1.35;;;;;;;12.04;100.00;101615.97;6053737;29;20511;-85
2022/10/06 07:12:37;;;;;;;8.57;1.67;;;;;;;12.02;100.00;101614.44;6045626;29;20053;-86
2022/10/06 07:25:52;;;;;;;5.38;1.77;;;;;;;12.10;100.00;101647.63;6048333;29;20060;-86
2022/10/06 07:28:58;;;;;;;7.90;2.15;;;;;;;12.09;100.00;101657.19;6056490;29;20052;-86
2022/10/06 07:32:01;;;;;;;7.78;1.67;;;;;;;12.15;100.00;101662.00;6037097;29;20433;-86
2022/10/06 07:35:05;;;;;;;6.93;1.50;;;;;;;12.14;100.00;101668.09;6041306;29;20465;-87
2022/10/06 07:38:08;;;;;;;5.53;1.35;;;;;;;12.19;100.00;101671.22;6058220;29;20057;-86
2022/10/06 07:41:14;;;;;;;6.97;1.20;;;;;;;12.24;100.00;101679.53;6049360;29;20144;-86
2022/10/06 07:44:29;;;;;;;4.75;1.00;;;;;;;12.27;100.00;101676.75;6067226;29;20053;-86
2022/10/06 07:47:32;;;;;;;5.82;1.27;;;;;;;12.31;100.00;101686.91;6064072;29;20080;-86
2022/10/06 07:50:36;;;;;;;6.40;1.40;;;;;;;12.26;100.00;101690.63;6053334;29;20131;-86
2022/10/06 07:53:38;;;;;;;6.28;1.25;;;;;;;12.40;100.00;101699.28;6052151;29;20057;-87
2022/10/06 07:57:06;;;;;;;6.55;1.17;;;;;;;12.44;100.00;101692.94;6045698;29;20179;-86
2022/10/06 08:00:08;;;;;;;5.70;1.20;;;;;;;12.48;100.00;101704.78;6045963;29;20048;-86
2022/10/06 08:03:16;;;;;;;6.55;1.13;;;;;;;12.48;100.00;101710.78;6048991;29;20052;-86
2022/10/06 08:06:18;;;;;;;9.02;1.33;;;;;;;12.47;100.00;101713.47;6041734;29;20072;-86
2022/10/06 08:09:21;;;;;;;14.10;2.20;;;;;;;12.41;100.00;101716.50;6050576;29;20074;-86
2022/10/06 08:12:40;;;;;;;8.95;1.88;;;;;;;12.45;100.00;101726.59;6052333;29;20092;-86
2022/10/06 08:15:42;;;;;;;7.65;1.63;;;;;;;12.55;100.00;101726.81;6052567;29;20045;-86
2022/10/06 08:18:52;;;;;;;3.65;1.10;;;;;;;12.58;100.00;101729.19;6055037;29;20721;-86
2022/10/06 08:21:54;;;;;;;8.70;1.27;;;;;;;12.69;100.00;101746.63;6045779;29;20099;-86
2022/10/06 08:24:56;;;;;;;6.82;1.25;;;;;;;12.78;100.00;101739.97;6035406;29;20372;-86
2022/10/06 08:28:11;;;;;;;6.47;1.88;;;;;;;12.73;100.00;101749.88;6042592;29;20041;-87
2022/10/06 08:31:16;;;;;;;7.25;1.55;;;;;;;12.83;100.00;101756.09;6036453;29;20509;-86
2022/10/06 08:34:20;;;;;;;6.18;1.83;;;;;;;12.87;100.00;101763.56;6040526;29;20108;-87
2022/10/06 08:37:26;;;;;;;9.25;1.65;;;;;;;12.89;100.00;101769.50;6047345;29;20174;-87
2022/10/06 08:40:28;;;;;;;6.63;1.20;;;;;;;12.97;100.00;101770.72;6033655;29;20037;-87
2022/10/06 08:43:31;;;;;;;7.70;1.40;;;;;;;12.99;100.00;101764.47;6051065;29;20071;-87
2022/10/06 08:47:03;;;;;;;7.28;1.42;;;;;;;13.06;100.00;101775.28;6043809;29;20594;-87
2022/10/06 08:50:11;;;;;;;5.57;0.98;;;;;;;13.22;100.00;101767.25;6046619;29;20053;-86
2022/10/06 08:53:39;;;;;;;7.45;1.67;;;;;;;13.27;100.00;101773.81;6052701;29;20135;-86
2022/10/06 08:57:09;;;;;;;6.38;1.65;;;;;;;13.40;96.79;101796.38;6045851;29;20436;-86
2022/10/06 09:00:13;;;;;;;5.10;1.25;;;;;;;13.40;98.08;101794.59;6033306;29;20045;-87
2022/10/06 09:03:27;;;;;;;8.45;1.73;;;;;;;13.47;99.35;101802.81;6045538;29;20070;-87
2022/10/06 09:07:02;;;;;;;8.25;1.17;;;;;;;13.49;97.13;101796.56;6040605;29;20059;-86
2022/10/06 09:10:41;;;;;;;4.95;1.25;;;;;;;13.45;97.28;101805.50;6046159;29;20037;-86
2022/10/06 09:13:54;;;;;;;8.05;1.25;;;;;;;13.42;96.31;101812.69;6039393;29;20060;-86
2022/10/06 09:17:03;;;;;;;4.90;1.00;;;;;;;13.46;93.05;101817.56;6035498;29;20049;-85
2022/10/06 09:20:19;;;;;;;5.28;0.93;;;;;;;13.49;93.89;101814.75;6029034;29;20037;-86
2022/10/06 09:23:46;;;;;;;5.30;1.27;;;;;;;13.53;90.93;101818.78;6058195;29;20278;-86
2022/10/06 09:26:45;;;;;;;8.15;1.25;;;;;;;13.56;93.16;101826.41;6043657;29;20487;-86
2022/10/06 09:29:48;;;;;;;4.93;1.15;;;;;;;13.60;92.53;101824.41;6045086;29;20147;-85
2022/10/06 09:32:57;;;;;;;8.13;1.60;;;;;;;13.69;92.29;101826.34;6031680;29;20038;-85
2022/10/06 09:36:14;;;;;;;4.20;1.60;;;;;;;13.78;90.05;101824.84;6045963;29;20056;-86
2022/10/06 09:39:24;;;;;;;5.53;1.15;;;;;;;13.92;91.46;101829.06;6026390;29;20416;-85
2022/10/06 09:42:28;;;;;;;8.05;1.30;;;;;;;14.04;90.42;101833.41;6035344;29;20132;-85
2022/10/06 09:45:30;;;;;;;7.30;1.60;;;;;;;14.23;89.41;101835.47;6034429;29;20077;-85
2022/10/06 09:48:32;;;;;;;5.78;1.10;;;;;;;14.47;90.38;101839.81;6038159;29;20413;-85
2022/10/06 09:51:35;;;;;;;5.68;1.27;;;;;;;14.63;88.00;101840.34;6040018;29;20140;-86
2022/10/06 09:54:40;;;;;;;10.60;1.20;;;;;;;14.77;87.42;101845.34;6041354;29;20049;-85
2022/10/06 09:57:54;;;;;;;6.80;1.35;;;;;;;14.90;84.07;101845.25;6047333;29;20049;-85
2022/10/06 10:01:22;;;;;;;7.95;1.17;;;;;;;15.06;82.69;101853.56;6043078;29;20040;-85
2022/10/06 10:04:31;;;;;;;4.65;1.27;;;;;;;15.43;80.39;101861.16;6029831;29;20069;-85
2022/10/06 10:07:34;;;;;;;4.50;1.05;;;;;;;15.62;79.13;101865.75;6037430;29;20058;-85
2022/10/06 10:10:36;;;;;;;4.75;1.23;;;;;;;15.71;78.15;101869.47;6036022;29;20049;-85
2022/10/06 10:13:42;;;;;;;6.43;1.10;;;;;;;15.81;79.70;101874.78;6047015;29;20571;-86
2022/10/06 10:16:45;;;;;;;6.18;1.15;;;;;;;15.93;78.99;101881.66;6042942;29;20132;-85
2022/10/06 10:19:54;;;;;;;7.45;1.75;;;;;;;15.95;77.18;101874.53;6046002;29;20041;-85
2022/10/06 10:23:03;;;;;;;5.15;0.90;;;;;;;15.86;77.38;101873.47;6051968;29;20043;-86
2022/10/06 10:26:26;;;;;;;5.30;1.10;;;;;;;15.81;76.77;101882.63;6046457;29;20045;-85
2022/10/06 10:30:09;;;;;;;5.65;1.00;;;;;;;15.96;77.38;101881.38;6058226;29;20127;-86
2022/10/06 10:33:41;;;;;;;8.35;1.33;;;;;;;16.10;76.53;101880.28;6041489;29;20044;-85
2022/10/06 10:37:30;;;;;;;5.68;1.08;;;;;;;16.15;76.31;101873.72;6043976;29;20056;-85
2022/10/06 10:40:44;;;;;;;4.63;1.13;;;;;;;16.10;76.35;101882.91;6049557;29;20113;-85
2022/10/06 10:44:05;;;;;;;6.53;1.10;;;;;;;16.14;74.68;101871.22;6054121;29;20396;-85
2022/10/06 10:47:16;;;;;;;5.00;1.13;;;;;;;16.08;76.42;101883.03;6048728;29;20049;-85
2022/10/06 10:50:23;;;;;;;3.47;1.13;;;;;;;15.89;75.79;101895.88;6053161;29;20467;-85
2022/10/06 10:53:48;;;;;;;5.93;1.05;;;;;;;15.76;76.97;101897.81;6038477;29;20042;-85
2022/10/06 10:56:52;;;;;;;7.82;1.40;;;;;;;15.82;77.76;101884.25;6052254;29;20065;-84
2022/10/06 11:00:04;;;;;;;5.32;1.25;;;;;;;15.86;73.33;101883.91;6050576;29;20049;-85
2022/10/06 11:03:08;;;;;;;5.82;1.02;;;;;;;15.92;74.19;101883.44;6031102;29;20042;-85
2022/10/06 11:06:35;;;;;;;3.95;1.25;;;;;;;15.95;74.11;101882.34;6048274;29;20052;-84
2022/10/06 11:09:55;;;;;;;5.47;1.05;;;;;;;16.12;74.76;101883.59;6049139;29;20424;-84
2022/10/06 11:13:16;;;;;;;3.33;0.73;;;;;;;16.14;74.98;101886.91;6044588;29;20544;-85
2022/10/06 11:16:37;;;;;;;;;;;;;;;16.26;73.90;101885.91;6050209;29;20119;-85
2022/10/06 11:20:18;;;;;;;2.55;0.90;;;;;;;16.33;72.47;101896.72;6044631;29;19934;-85
2022/10/06 11:23:23;;;;;;;6.18;1.40;;;;;;;16.30;71.45;101892.56;6047057;29;20037;-84
2022/10/06 11:26:47;;;;;;;4.32;1.00;;;;;;;16.19;68.86;101899.59;6049126;29;20100;-84
2022/10/06 11:30:06;;;;;;;5.45;1.20;;;;;;;16.21;71.03;101901.13;6043849;29;20127;-84
2022/10/06 11:33:19;;;;;;;4.95;1.10;;;;;;;15.96;72.70;101912.72;6057581;29;20060;-84
2022/10/06 11:36:52;;;;;;;5.25;1.17;;;;;;;16.02;73.87;101898.34;6036679;29;20069;-85
2022/10/06 11:40:13;;;;;;;4.45;1.25;;;;;;;16.11;73.48;101906.28;6041621;29;20109;-84
2022/10/06 11:43:16;;;;;;;6.80;1.25;;;;;;;16.15;70.55;101907.69;6041648;29;20667;-84
2022/10/06 11:46:27;;;;;;;3.53;1.15;;;;;;;16.31;68.54;101896.81;6054702;29;20492;-84
2022/10/06 11:49:54;;;;;;;5.55;1.00;;;;;;;16.45;69.50;101902.72;6045205;29;20045;-84
2022/10/06 11:52:56;;;;;;;5.72;1.42;;;;;;;16.41;66.78;101898.69;6029979;29;20048;-84
2022/10/06 11:56:22;;;;;;;6.57;1.23;;;;;;;16.29;66.77;101911.78;6038833;29;20059;-84
2022/10/06 11:59:25;;;;;;;5.20;0.90;;;;;;;16.35;66.79;101900.84;6038148;29;20456;-83
2022/10/06 12:02:33;;;;;;;6.25;1.00;;;;;;;16.44;67.20;101903.66;6039193;29;20045;-85
2022/10/06 12:05:35;;;;;;;4.13;1.17;;;;;;;16.49;68.21;101906.72;6058148;29;20053;-84
2022/10/06 12:08:57;;;;;;;3.50;1.00;;;;;;;16.48;65.42;101903.28;6039789;29;20045;-83
2022/10/06 12:12:17;;;;;;;5.65;0.90;;;;;;;16.53;66.59;101901.13;6038488;29;20473;-84
2022/10/06 12:15:27;;;;;;;7.32;1.15;;;;;;;16.58;65.20;101892.91;6047550;29;20045;-84
2022/10/06 12:18:52;;;;;;;3.88;0.88;;;;;;;16.65;67.52;101886.22;6041471;29;20564;-84
2022/10/06 12:22:08;;;;;;;5.45;1.20;;;;;;;16.70;65.54;101891.06;6047278;29;20408;-84
2022/10/06 12:25:34;;;;;;;4.50;0.90;;;;;;;16.67;64.39;101893.91;6047598;29;20076;-84
2022/10/06 12:29:34;;;;;;;3.92;1.55;;;;;;;16.80;65.57;101892.00;6047395;29;20056;-84
2022/10/06 12:32:50;;;;;;;3.63;0.90;;;;;;;16.91;64.30;101889.28;6010992;29;20531;-83
2022/10/06 12:36:01;;;;;;;7.22;1.05;;;;;;;16.99;65.43;101894.72;6027278;29;20320;-84
2022/10/06 12:39:20;;;;;;;2.72;0.90;;;;;;;17.04;64.52;101891.69;6031171;29;20042;-84
2022/10/06 12:42:30;;;;;;;2.70;0.82;;;;;;;16.93;62.48;101894.41;6030148;29;20084;-84
2022/10/06 12:45:33;;;;;;;3.30;0.80;;;;;;;17.01;63.87;101887.56;6026809;29;20055;-85
2022/10/06 12:49:20;;;;;;;5.38;1.23;;;;;;;16.94;62.01;101891.66;6029751;29;20492;-85
2022/10/06 12:52:59;;;;;;;7.18;1.52;;;;;;;16.87;65.87;101892.28;6019310;29;20049;-84
2022/10/06 12:56:05;;;;;;;7.00;1.20;;;;;;;16.93;65.61;101895.22;6028223;29;20067;-85
2022/10/06 12:59:38;;;;;;;6.75;1.30;;;;;;;16.98;66.24;101889.59;6020945;29;20540;-85
2022/10/06 13:02:42;;;;;;;8.43;1.40;;;;;;;17.06;65.37;101889.78;5903651;30;20149;-85
2022/10/06 13:05:50;;;;;;;4.38;1.27;;;;;;;16.95;63.89;101905.56;5903098;30;20469;-85
2022/10/06 13:09:12;;;;;;;4.82;1.00;;;;;;;16.94;65.04;101890.81;5918841;29;20063;-84
2022/10/06 13:12:22;;;;;;;8.05;1.10;;;;;;;16.92;61.47;101903.22;5916395;29;20151;-85
2022/10/06 13:15:33;;;;;;;6.13;0.98;;;;;;;16.94;63.14;101891.66;5921502;29;20581;-84
2022/10/06 13:18:35;;;;;;;6.30;1.13;;;;;;;17.06;64.71;101891.56;5922317;29;20207;-85
2022/10/06 13:21:37;;;;;;;3.30;0.80;;;;;;;17.20;63.62;101886.81;5908496;29;20048;-85
2022/10/06 13:24:39;;;;;;;6.18;1.42;;;;;;;17.26;62.26;101889.88;5927315;29;20546;-85
2022/10/06 13:27:49;;;;;;;4.35;0.85;;;;;;;17.35;59.05;101891.72;5923701;29;20531;-85
2022/10/06 13:31:10;;;;;;;3.00;1.10;;;;;;;17.56;60.60;101907.34;5907207;30;20052;-84
2022/10/06 13:34:17;;;;;;;6.68;1.40;;;;;;;17.59;58.31;101891.38;5923274;29;20104;-85
2022/10/06 13:37:19;;;;;;;7.82;1.33;;;;;;;17.56;59.44;101891.63;5917879;29;20422;-85
2022/10/06 13:40:32;;;;;;;6.40;0.93;;;;;;;17.61;59.33;101881.59;6035736;29;20548;-85
2022/10/06 13:43:52;;;;;;;6.10;1.23;;;;;;;17.63;60.76;101884.91;6030390;29;20601;-84
2022/10/06 13:46:57;;;;;;;3.28;1.10;;;;;;;17.72;60.96;101891.97;6032815;29;20046;-84
2022/10/06 13:50:05;;;;;;;5.10;1.77;;;;;;;17.53;60.84;101905.00;6034883;29;20041;-84
2022/10/06 13:53:22;;;;;;;3.40;0.90;;;;;;;17.54;59.38;101899.63;6041051;29;20068;-84
2022/10/06 13:56:34;;;;;;;3.17;0.98;;;;;;;17.59;58.21;101900.06;6031509;29;20046;-85
2022/10/06 13:59:37;;;;;;;3.58;1.15;;;;;;;17.73;57.59;101898.84;6027251;29;20133;-84
2022/10/06 14:02:40;;;;;;;6.13;1.48;;;;;;;17.76;58.85;101895.97;6027376;29;20069;-84
2022/10/06 14:05:44;;;;;;;4.53;0.90;;;;;;;17.80;57.23;101904.41;6046380;29;20056;-85
2022/10/06 14:08:52;;;;;;;4.65;1.30;;;;;;;17.79;56.29;101900.94;6052565;29;20045;-86
2022/10/06 14:12:10;;;;;;;3.50;1.00;;;;;;;17.80;57.85;101896.56;6047302;29;20124;-85
2022/10/06 14:15:23;;;;;;;5.47;1.08;;;;;;;17.92;59.48;101900.72;6056822;29;20110;-85
2022/10/06 14:18:31;;;;;;;5.80;1.17;;;;;;;17.98;57.96;101901.97;6031668;29;20423;-85
2022/10/06 14:21:43;;;;;;;4.20;1.13;;;;;;;18.03;58.35;101900.59;6040918;29;20096;-84
2022/10/06 14:24:54;;;;;;;4.78;0.90;;;;;;;17.98;58.20;101887.06;6041774;29;20440;-84
2022/10/06 14:27:56;;;;;;;5.35;1.05;;;;;;;17.99;60.01;101899.22;6052832;29;20272;-84
2022/10/06 14:30:59;;;;;;;5.05;1.33;;;;;;;18.02;57.66;101904.19;6044942;29;20048;-84
2022/10/06 14:34:02;;;;;;;7.80;1.50;;;;;;;17.98;58.35;101901.97;6033942;29;20048;-85
2022/10/06 14:37:04;;;;;;;5.05;1.38;;;;;;;17.95;58.78;101892.59;6046747;29;20045;-85
2022/10/06 14:40:07;;;;;;;3.42;1.10;;;;;;;17.90;58.81;101889.53;6047876;29;20300;-84
2022/10/06 14:43:13;;;;;;;3.70;1.05;;;;;;;17.90;58.72;101889.53;6052051;29;20052;-85